Time;durP1;ratioP1;P1;durP2;ratioP2;P2;SDS_P1;SDS_P2;PMS_P1;PMS_P2;Temp;Humidity;BMP_temperature;BMP_pressure;BME280_temperature;BME280_humidity;BME280_pressure;Samples;Min_cycle;Max_cycle;Signal;HPM_P1;HPM_P2
2022/10/18 00:01:40;;;;;;;10.20;4.78;;;;;20.40;102375.00;;;;5087673;28;20201;-78
2022/10/18 00:04:09;;;;;;;5.57;4.72;;;;;20.40;102383.00;;;;5078926;28;20198;-78
2022/10/18 00:06:37;;;;;;;7.25;4.50;;;;;20.40;102382.00;;;;5087221;28;20681;-78
2022/10/18 00:09:04;;;;;;;13.63;5.05;;;;;20.40;102374.00;;;;5080013;28;20222;-78
2022/10/18 00:11:31;;;;;;;8.27;4.70;;;;;20.40;102375.00;;;;5079029;28;20202;-78
2022/10/18 00:13:59;;;;;;;7.40;5.07;;;;;20.40;102373.00;;;;5087623;28;20202;-78
2022/10/18 00:16:26;;;;;;;8.70;4.95;;;;;20.40;102376.00;;;;5084654;28;20276;-79
2022/10/18 00:18:54;;;;;;;8.20;4.40;;;;;20.40;102374.00;;;;5081283;28;20203;-79
2022/10/18 00:21:24;;;;;;;8.23;4.68;;;;;20.40;102370.00;;;;5085115;28;20213;-78
2022/10/18 00:23:53;;;;;;;6.05;4.50;;;;;20.40;102383.00;;;;5074474;28;20211;-78
2022/10/18 00:26:23;;;;;;;8.68;4.63;;;;;20.40;102374.00;;;;5080327;28;20198;-78
2022/10/18 00:28:53;;;;;;;11.48;5.75;;;;;20.40;102376.00;;;;5086336;28;20222;-78
2022/10/18 00:31:22;;;;;;;7.90;5.38;;;;;20.40;102381.00;;;;5082413;28;20590;-78
2022/10/18 00:33:51;;;;;;;9.23;5.20;;;;;20.40;102384.00;;;;5078757;28;20673;-79
2022/10/18 00:36:20;;;;;;;8.55;5.63;;;;;20.40;102389.00;;;;5084067;28;20687;-79
2022/10/18 00:38:49;;;;;;;8.55;5.07;;;;;20.40;102388.00;;;;5085376;28;20194;-78
2022/10/18 00:41:19;;;;;;;7.50;5.75;;;;;20.40;102392.00;;;;5092148;28;20214;-78
2022/10/18 00:43:55;;;;;;;16.25;5.72;;;;;20.30;102391.00;;;;5089914;28;20202;-79
2022/10/18 00:46:22;;;;;;;9.00;4.70;;;;;20.40;102391.00;;;;5087357;28;20201;-78
2022/10/18 00:48:50;;;;;;;14.98;5.53;;;;;20.40;102378.00;;;;5080277;28;20187;-78
2022/10/18 00:51:20;;;;;;;11.02;5.18;;;;;20.30;102381.00;;;;5091541;28;20194;-78
2022/10/18 00:53:50;;;;;;;6.97;5.07;;;;;20.40;102395.00;;;;5082240;28;20660;-78
2022/10/18 00:56:18;;;;;;;14.90;5.22;;;;;20.40;102391.00;;;;5083023;28;20202;-78
2022/10/18 00:58:47;;;;;;;7.90;5.70;;;;;20.40;102395.00;;;;5083750;28;20194;-78
2022/10/18 01:01:15;;;;;;;7.47;4.70;;;;;20.40;102398.00;;;;5089255;28;20202;-78
2022/10/18 01:03:42;;;;;;;7.10;5.05;;;;;20.40;102395.00;;;;5082568;28;21687;-79
2022/10/18 01:06:10;;;;;;;7.65;4.47;;;;;20.40;102406.00;;;;5089259;28;20206;-78
2022/10/18 01:09:02;;;;;;;6.75;4.85;;;;;20.20;102411.00;;;;5089951;28;20202;-78
2022/10/18 01:11:42;;;;;;;6.82;4.25;;;;;20.30;102410.00;;;;5090349;28;20202;-78
2022/10/18 01:14:26;;;;;;;20.70;5.05;;;;;20.30;102407.00;;;;5087742;28;20712;-78
2022/10/18 01:17:00;;;;;;;5.30;4.38;;;;;20.40;102408.00;;;;5082566;28;20197;-78
2022/10/18 01:19:49;;;;;;;5.68;4.13;;;;;20.30;102403.00;;;;5088867;28;20209;-78
2022/10/18 01:22:22;;;;;;;8.00;4.75;;;;;20.40;102406.00;;;;5087227;28;20190;-78
2022/10/18 01:25:05;;;;;;;7.22;4.65;;;;;20.30;102405.00;;;;5088981;28;20217;-78
2022/10/18 01:27:47;;;;;;;9.10;4.47;;;;;20.30;102413.00;;;;5077172;28;20205;-79
2022/10/18 01:30:38;;;;;;;8.25;4.13;;;;;20.30;102414.00;;;;5080645;28;20574;-78
2022/10/18 01:33:14;;;;;;;7.15;4.43;;;;;20.40;102415.00;;;;5088874;28;20198;-78
2022/10/18 01:35:48;;;;;;;5.95;4.75;;;;;20.40;102425.00;;;;5086004;28;20682;-76
2022/10/18 01:38:19;;;;;;;5.65;4.38;;;;;20.40;102422.00;;;;5087034;28;20679;-76
2022/10/18 01:40:49;;;;;;;5.25;4.15;;;;;20.40;102414.00;;;;5073556;28;20199;-77
2022/10/18 01:43:18;;;;;;;9.88;5.18;;;;;20.40;102411.00;;;;5083954;28;20206;-78
2022/10/18 01:45:47;;;;;;;6.30;4.25;;;;;20.40;102420.00;;;;5080254;28;20626;-77
2022/10/18 01:48:16;;;;;;;5.35;3.65;;;;;20.40;102415.00;;;;5086486;28;20214;-77
2022/10/18 01:50:43;;;;;;;7.28;4.80;;;;;20.40;102412.00;;;;5079541;28;20226;-77
2022/10/18 01:53:29;;;;;;;6.10;4.28;;;;;20.30;102411.00;;;;5084213;28;20205;-78
2022/10/18 01:56:06;;;;;;;5.70;3.90;;;;;20.40;102401.00;;;;5081917;28;20209;-77
2022/10/18 01:58:41;;;;;;;5.03;4.07;;;;;20.40;102401.00;;;;5082045;28;20190;-77
2022/10/18 02:01:19;;;;;;;7.88;4.10;;;;;20.30;102403.00;;;;5087896;28;20202;-78
2022/10/18 02:03:50;;;;;;;8.90;4.25;;;;;20.40;102406.00;;;;5085924;28;20284;-78
2022/10/18 02:06:23;;;;;;;5.75;4.07;;;;;20.40;102410.00;;;;5087039;28;20206;-78
2022/10/18 02:08:57;;;;;;;5.82;3.92;;;;;20.40;102413.00;;;;5087366;28;20252;-78
2022/10/18 02:11:25;;;;;;;5.60;3.88;;;;;20.40;102420.00;;;;5086755;28;20252;-78
2022/10/18 02:13:55;;;;;;;7.13;3.80;;;;;20.40;102409.00;;;;5087832;28;20187;-78
2022/10/18 02:16:28;;;;;;;7.70;4.22;;;;;20.40;102408.00;;;;5086945;28;20206;-78
2022/10/18 02:19:00;;;;;;;6.55;4.38;;;;;20.40;102408.00;;;;5088169;28;20191;-78
2022/10/18 02:21:29;;;;;;;5.68;4.60;;;;;20.40;102408.00;;;;5086476;28;20865;-79
2022/10/18 02:23:59;;;;;;;6.72;3.97;;;;;20.40;102399.00;;;;5079471;28;20221;-79
2022/10/18 02:26:26;;;;;;;5.50;3.67;;;;;20.40;102402.00;;;;5086169;28;20198;-78
2022/10/18 02:28:53;;;;;;;7.13;4.18;;;;;20.40;102405.00;;;;5084893;28;124220;-79
2022/10/18 02:31:26;;;;;;;7.00;4.20;;;;;20.40;102404.00;;;;5074012;28;20222;-79
2022/10/18 02:33:56;;;;;;;6.60;3.92;;;;;20.40;102409.00;;;;5087345;28;20186;-79
2022/10/18 02:36:27;;;;;;;4.57;3.55;;;;;20.40;102410.00;;;;5085569;28;20201;-79
2022/10/18 02:39:00;;;;;;;4.72;4.05;;;;;20.30;102425.00;;;;5089310;28;20194;-78
2022/10/18 02:41:28;;;;;;;4.20;3.80;;;;;20.40;102413.00;;;;5078977;28;20820;-78
2022/10/18 02:43:55;;;;;;;6.97;4.75;;;;;20.40;102410.00;;;;5076169;28;20195;-79
2022/10/18 02:46:23;;;;;;;4.30;3.90;;;;;20.30;102416.00;;;;5080587;28;20214;-79
2022/10/18 02:48:51;;;;;;;5.00;3.67;;;;;20.30;102420.00;;;;5087566;28;20187;-78
2022/10/18 02:51:19;;;;;;;5.25;3.60;;;;;20.30;102419.00;;;;5085909;28;20222;-79
2022/10/18 02:53:46;;;;;;;3.25;2.95;;;;;20.30;102411.00;;;;5079560;28;20210;-79
2022/10/18 02:56:13;;;;;;;4.18;3.40;;;;;20.30;102413.00;;;;5086182;28;20190;-79
2022/10/18 02:58:41;;;;;;;4.13;3.65;;;;;20.30;102412.00;;;;5082401;28;20209;-78
2022/10/18 03:01:08;;;;;;;5.10;4.18;;;;;20.20;102408.00;;;;5088150;28;20194;-78
2022/10/18 03:03:35;;;;;;;4.88;3.72;;;;;20.20;102414.00;;;;5086126;28;20204;-79
2022/10/18 03:06:04;;;;;;;4.90;3.50;;;;;20.20;102406.00;;;;5085664;28;20202;-78
2022/10/18 03:08:31;;;;;;;3.95;3.47;;;;;20.20;102410.00;;;;5084741;28;21078;-78
2022/10/18 03:10:59;;;;;;;4.03;3.63;;;;;20.20;102412.00;;;;5080646;28;20225;-78
2022/10/18 03:13:26;;;;;;;3.75;3.08;;;;;20.10;102415.00;;;;5085475;28;20190;-78
2022/10/18 03:15:53;;;;;;;5.15;3.20;;;;;20.10;102412.00;;;;5089256;28;20205;-78
2022/10/18 03:18:21;;;;;;;2.95;2.58;;;;;20.10;102415.00;;;;5084088;28;20198;-79
2022/10/18 03:20:48;;;;;;;4.30;3.40;;;;;20.10;102418.00;;;;5084488;28;20209;-78
2022/10/18 03:23:16;;;;;;;4.68;3.08;;;;;20.00;102412.00;;;;5074315;28;20214;-79
2022/10/18 03:25:44;;;;;;;3.30;3.00;;;;;20.00;102416.00;;;;5078698;28;20186;-78
2022/10/18 03:28:11;;;;;;;3.78;3.30;;;;;20.00;102426.00;;;;5073891;28;20195;-79
2022/10/18 03:30:39;;;;;;;5.70;3.20;;;;;20.00;102424.00;;;;5076042;28;20241;-78
2022/10/18 03:33:06;;;;;;;4.40;3.10;;;;;20.00;102425.00;;;;5085129;28;20198;-78
2022/10/18 03:35:33;;;;;;;5.38;2.75;;;;;20.00;102418.00;;;;5082687;28;20202;-79
2022/10/18 03:38:01;;;;;;;3.08;2.80;;;;;20.00;102418.00;;;;5085676;28;20206;-78
2022/10/18 03:40:29;;;;;;;3.90;2.95;;;;;19.90;102416.00;;;;5087383;28;20203;-79
2022/10/18 03:42:56;;;;;;;4.00;2.78;;;;;19.90;102420.00;;;;5079779;28;20199;-79
2022/10/18 03:45:24;;;;;;;4.32;3.20;;;;;19.90;102419.00;;;;5072149;28;20389;-78
2022/10/18 03:47:51;;;;;;;3.20;2.90;;;;;19.90;102421.00;;;;5079365;28;20209;-78
2022/10/18 03:50:18;;;;;;;2.38;2.17;;;;;19.90;102422.00;;;;5073906;28;20218;-78
2022/10/18 03:52:46;;;;;;;3.15;2.85;;;;;19.90;102426.00;;;;5083862;28;20191;-78
2022/10/18 03:55:13;;;;;;;3.95;3.38;;;;;19.90;102416.00;;;;5087152;28;20210;-78
2022/10/18 03:57:42;;;;;;;3.40;3.00;;;;;19.80;102411.00;;;;5085529;28;20186;-79
2022/10/18 04:00:10;;;;;;;2.72;2.53;;;;;19.80;102404.00;;;;5078748;28;20199;-78
2022/10/18 04:02:38;;;;;;;2.50;2.30;;;;;19.80;102408.00;;;;5082059;28;20201;-77
2022/10/18 04:05:06;;;;;;;3.55;2.53;;;;;19.80;102414.00;;;;5085537;28;20579;-77
2022/10/18 04:07:33;;;;;;;2.60;2.40;;;;;19.80;102415.00;;;;5087494;28;20205;-77
2022/10/18 04:10:01;;;;;;;4.10;2.88;;;;;19.80;102414.00;;;;5087247;28;20218;-77
2022/10/18 04:12:28;;;;;;;3.83;2.60;;;;;19.70;102409.00;;;;5084150;28;20202;-77
2022/10/18 04:14:57;;;;;;;2.40;2.20;;;;;19.70;102411.00;;;;5082940;28;20193;-77
2022/10/18 04:17:24;;;;;;;2.50;2.30;;;;;19.70;102407.00;;;;5087550;28;20194;-77
2022/10/18 04:19:51;;;;;;;3.10;2.80;;;;;19.70;102403.00;;;;5085852;28;20202;-77
2022/10/18 04:22:19;;;;;;;4.35;2.65;;;;;19.70;102408.00;;;;5080021;28;20198;-77
2022/10/18 04:24:46;;;;;;;2.88;2.67;;;;;19.70;102408.00;;;;5081108;28;20591;-77
2022/10/18 04:27:13;;;;;;;3.97;2.47;;;;;19.70;102400.00;;;;5085968;28;20206;-77
2022/10/18 04:29:40;;;;;;;2.75;2.47;;;;;19.70;102409.00;;;;5076922;28;20221;-77
2022/10/18 04:32:09;;;;;;;2.78;2.58;;;;;19.70;102411.00;;;;5073560;28;20231;-77
2022/10/18 04:34:36;;;;;;;5.15;2.38;;;;;19.70;102409.00;;;;5079731;28;20191;-77
2022/10/18 04:37:04;;;;;;;2.70;2.50;;;;;19.70;102417.00;;;;5082682;28;20197;-77
2022/10/18 04:39:32;;;;;;;3.75;2.60;;;;;19.60;102420.00;;;;5075918;28;20209;-77
2022/10/18 04:41:59;;;;;;;1.98;1.88;;;;;19.60;102408.00;;;;5065794;28;20399;-77
2022/10/18 04:44:26;;;;;;;4.10;2.55;;;;;19.60;102403.00;;;;5079035;28;20197;-78
2022/10/18 04:46:54;;;;;;;2.53;2.33;;;;;19.60;102409.00;;;;5074996;28;20209;-77
2022/10/18 04:49:22;;;;;;;3.00;1.88;;;;;19.60;102408.00;;;;5079356;28;20214;-77
2022/10/18 04:51:50;;;;;;;4.82;1.60;;;;;19.60;102413.00;;;;5079511;28;20219;-76
2022/10/18 04:54:17;;;;;;;2.05;1.83;;;;;19.60;102415.00;;;;5083247;28;20209;-77
2022/10/18 04:56:44;;;;;;;3.47;1.77;;;;;19.50;102415.00;;;;5087930;28;20206;-77
2022/10/18 04:59:12;;;;;;;2.20;2.00;;;;;19.50;102418.00;;;;5085129;28;20194;-77
2022/10/18 05:01:39;;;;;;;2.10;2.00;;;;;19.50;102423.00;;;;5081042;28;20213;-77
2022/10/18 05:04:06;;;;;;;1.90;1.80;;;;;19.50;102430.00;;;;5078905;28;20191;-77
2022/10/18 05:06:35;;;;;;;1.80;1.70;;;;;19.50;102424.00;;;;5068053;28;20210;-77
2022/10/18 05:09:02;;;;;;;1.70;1.40;;;;;19.50;102423.00;;;;5073313;28;20195;-77
2022/10/18 05:11:30;;;;;;;4.15;1.67;;;;;19.40;102421.00;;;;5082652;28;20227;-76
2022/10/18 05:13:58;;;;;;;4.93;1.73;;;;;19.40;102419.00;;;;5086848;28;20201;-77
2022/10/18 05:16:27;;;;;;;8.27;1.88;;;;;19.40;102430.00;;;;5079311;28;20218;-77
2022/10/18 05:18:54;;;;;;;2.22;2.03;;;;;19.40;102426.00;;;;5069528;28;20199;-77
2022/10/18 05:21:21;;;;;;;2.33;2.13;;;;;19.40;102432.00;;;;5078361;28;20199;-76
2022/10/18 05:23:50;;;;;;;3.67;1.67;;;;;19.30;102430.00;;;;5085754;28;20650;-77
2022/10/18 05:26:17;;;;;;;2.08;1.88;;;;;19.30;102441.00;;;;5087075;28;20205;-77
2022/10/18 05:28:45;;;;;;;2.22;2.03;;;;;19.30;102435.00;;;;5083724;28;20203;-77
2022/10/18 05:31:12;;;;;;;5.18;1.83;;;;;19.30;102436.00;;;;5087711;28;20226;-77
2022/10/18 05:33:40;;;;;;;1.58;1.48;;;;;19.30;102444.00;;;;5085809;28;20190;-77
2022/10/18 05:36:08;;;;;;;1.58;1.48;;;;;19.30;102441.00;;;;5088775;28;20668;-77
2022/10/18 05:38:37;;;;;;;3.30;1.48;;;;;19.30;102444.00;;;;5089479;28;20656;-77
2022/10/18 05:41:06;;;;;;;1.67;1.55;;;;;19.20;102450.00;;;;5085211;28;20190;-77
2022/10/18 05:43:33;;;;;;;2.20;2.00;;;;;19.20;102449.00;;;;5083184;28;20194;-78
2022/10/18 05:46:01;;;;;;;4.05;1.75;;;;;19.20;102459.00;;;;5090479;28;20198;-76
2022/10/18 05:48:28;;;;;;;7.45;2.28;;;;;19.20;102452.00;;;;5087556;28;20202;-76
2022/10/18 05:50:58;;;;;;;2.85;1.45;;;;;19.20;102454.00;;;;5086950;28;20218;-76
2022/10/18 05:53:26;;;;;;;1.63;1.52;;;;;19.20;102456.00;;;;5079154;28;20614;-75
2022/10/18 05:55:53;;;;;;;2.85;1.50;;;;;19.20;102458.00;;;;5087220;28;20197;-76
2022/10/18 05:58:22;;;;;;;3.10;1.98;;;;;19.10;102470.00;;;;5081186;28;20194;-77
2022/10/18 06:00:50;;;;;;;2.13;1.65;;;;;19.10;102470.00;;;;5083308;28;20206;-79
2022/10/18 06:03:17;;;;;;;3.55;2.20;;;;;19.10;102473.00;;;;5081602;28;20236;-78
2022/10/18 06:05:45;;;;;;;3.97;1.60;;;;;19.10;102473.00;;;;5081287;28;20194;-77
2022/10/18 06:08:12;;;;;;;1.70;1.60;;;;;19.10;102472.00;;;;5076211;28;20187;-78
2022/10/18 06:10:40;;;;;;;2.88;2.15;;;;;19.00;102474.00;;;;5076629;28;20222;-77
2022/10/18 06:13:07;;;;;;;2.80;1.52;;;;;19.00;102487.00;;;;5078261;28;20198;-77
2022/10/18 06:15:35;;;;;;;1.73;1.63;;;;;19.00;102486.00;;;;5077143;28;20194;-77
2022/10/18 06:18:03;;;;;;;2.47;1.52;;;;;18.90;102490.00;;;;5079055;28;20198;-77
2022/10/18 06:20:30;;;;;;;1.85;1.60;;;;;18.90;102479.00;;;;5077278;28;20751;-77
2022/10/18 06:22:57;;;;;;;2.20;2.00;;;;;18.90;102486.00;;;;5083097;28;20198;-78
2022/10/18 06:25:25;;;;;;;2.15;1.95;;;;;18.90;102492.00;;;;5077835;28;20198;-78
2022/10/18 06:27:52;;;;;;;2.90;1.98;;;;;18.80;102504.00;;;;5080429;28;20193;-77
2022/10/18 06:30:19;;;;;;;2.92;1.50;;;;;18.80;102504.00;;;;5078296;28;20753;-76
2022/10/18 06:32:48;;;;;;;1.85;1.75;;;;;18.80;102502.00;;;;5079183;28;21462;-77
2022/10/18 06:35:16;;;;;;;3.47;1.63;;;;;18.80;102495.00;;;;5084475;28;20195;-77
2022/10/18 06:37:43;;;;;;;2.75;1.40;;;;;18.80;102504.00;;;;5090071;28;20209;-77
2022/10/18 06:40:12;;;;;;;3.38;1.38;;;;;18.70;102513.00;;;;5074550;28;20199;-77
2022/10/18 06:42:39;;;;;;;1.58;1.48;;;;;18.70;102513.00;;;;5082653;28;20195;-76
2022/10/18 06:45:07;;;;;;;1.92;1.67;;;;;18.70;102521.00;;;;5080589;28;20664;-77
2022/10/18 06:47:35;;;;;;;3.50;1.60;;;;;18.70;102523.00;;;;5080298;28;20677;-76
2022/10/18 06:50:03;;;;;;;1.63;1.52;;;;;18.70;102525.00;;;;5084033;28;20191;-77
2022/10/18 06:52:31;;;;;;;1.40;1.30;;;;;18.70;102525.00;;;;5085326;28;20222;-77
2022/10/18 06:54:58;;;;;;;1.40;1.30;;;;;18.70;102535.00;;;;5080558;28;20222;-77
2022/10/18 06:57:25;;;;;;;1.50;1.40;;;;;18.70;102546.00;;;;5081738;28;20644;-77
2022/10/18 06:59:52;;;;;;;1.67;1.58;;;;;18.70;102542.00;;;;5082600;28;20194;-76
2022/10/18 07:02:20;;;;;;;1.90;1.60;;;;;18.70;102545.00;;;;5081390;28;20209;-77
2022/10/18 07:04:47;;;;;;;1.67;1.42;;;;;18.70;102549.00;;;;5081106;28;20230;-77
2022/10/18 07:07:15;;;;;;;1.60;1.50;;;;;18.70;102546.00;;;;5087451;28;20198;-77
2022/10/18 07:09:44;;;;;;;2.58;1.55;;;;;18.70;102557.00;;;;5084990;28;20791;-77
2022/10/18 07:12:14;;;;;;;7.95;1.30;;;;;18.70;102552.00;;;;5088553;28;20309;-77
2022/10/18 07:14:41;;;;;;;2.53;1.42;;;;;18.70;102555.00;;;;5088415;28;20582;-77
2022/10/18 07:17:08;;;;;;;5.18;1.80;;;;;18.70;102556.00;;;;5085250;28;20214;-77
2022/10/18 07:19:36;;;;;;;1.60;1.50;;;;;18.70;102566.00;;;;5077880;28;20222;-77
2022/10/18 07:22:03;;;;;;;1.80;1.58;;;;;18.80;102566.00;;;;5088681;28;20202;-77
2022/10/18 07:24:32;;;;;;;2.97;1.73;;;;;18.80;102572.00;;;;5088703;28;20681;-77
2022/10/18 07:26:59;;;;;;;1.83;1.50;;;;;18.80;102578.00;;;;5072981;28;20217;-77
2022/10/18 07:29:26;;;;;;;2.30;1.85;;;;;18.80;102572.00;;;;5072585;28;20234;-77
2022/10/18 07:31:53;;;;;;;2.47;1.42;;;;;18.90;102579.00;;;;5080669;28;20217;-77
2022/10/18 07:34:21;;;;;;;3.42;1.58;;;;;18.90;102575.00;;;;5088306;28;20210;-77
2022/10/18 07:36:48;;;;;;;2.95;1.55;;;;;19.00;102576.00;;;;5083600;28;20676;-79
2022/10/18 07:39:15;;;;;;;2.30;1.90;;;;;19.00;102576.00;;;;5088074;28;20191;-78
2022/10/18 07:41:44;;;;;;;4.60;2.20;;;;;19.00;102581.00;;;;5084845;28;20195;-77
2022/10/18 07:44:11;;;;;;;3.13;1.52;;;;;19.10;102574.00;;;;5077601;28;20206;-77
2022/10/18 07:46:39;;;;;;;2.88;1.70;;;;;19.20;102586.00;;;;5069090;28;20202;-78
2022/10/18 07:49:06;;;;;;;2.22;1.70;;;;;19.20;102597.00;;;;5070108;28;20202;-78
2022/10/18 07:51:34;;;;;;;2.85;2.15;;;;;19.30;102592.00;;;;5084139;28;20226;-78
2022/10/18 07:54:02;;;;;;;7.10;1.73;;;;;19.30;102594.00;;;;5068446;28;20294;-78
2022/10/18 07:56:29;;;;;;;3.00;1.88;;;;;19.30;102592.00;;;;5086945;28;20565;-76
2022/10/18 07:58:58;;;;;;;5.30;1.83;;;;;19.40;102597.00;;;;5085359;28;20201;-76
2022/10/18 08:01:26;;;;;;;2.25;1.52;;;;;19.40;102598.00;;;;5082744;28;20210;-76
2022/10/18 08:03:53;;;;;;;2.35;1.98;;;;;19.50;102595.00;;;;5076764;28;20198;-79
2022/10/18 08:06:21;;;;;;;2.38;1.75;;;;;19.60;102606.00;;;;5079586;28;20610;-77
2022/10/18 08:08:49;;;;;;;4.57;2.10;;;;;19.60;102618.00;;;;5072131;28;20209;-76
2022/10/18 08:11:18;;;;;;;4.13;1.85;;;;;19.70;102614.00;;;;5084785;28;20214;-76
2022/10/18 08:13:46;;;;;;;2.97;1.70;;;;;19.70;102614.00;;;;5081957;28;20199;-77
2022/10/18 08:16:17;;;;;;;2.00;1.80;;;;;19.80;102614.00;;;;5075802;28;20557;-77
2022/10/18 08:18:44;;;;;;;3.67;1.75;;;;;19.80;102620.00;;;;5077448;28;20194;-76
2022/10/18 08:21:14;;;;;;;3.65;1.75;;;;;19.90;102628.00;;;;5075311;28;20199;-76
2022/10/18 08:23:41;;;;;;;4.82;2.55;;;;;20.00;102625.00;;;;5081308;28;20215;-76
2022/10/18 08:26:10;;;;;;;6.07;2.28;;;;;20.00;102624.00;;;;5071747;28;20685;-76
2022/10/18 08:28:38;;;;;;;3.10;1.92;;;;;20.10;102620.00;;;;5082031;28;20194;-75
2022/10/18 08:31:06;;;;;;;4.63;1.58;;;;;20.10;102622.00;;;;5071698;28;20289;-76
2022/10/18 08:33:35;;;;;;;2.17;1.70;;;;;20.20;102627.00;;;;5084629;28;20205;-75
2022/10/18 08:36:04;;;;;;;3.55;1.75;;;;;20.30;102622.00;;;;5071566;28;20206;-76
2022/10/18 08:38:32;;;;;;;3.38;1.98;;;;;20.40;102627.00;;;;5078526;28;20248;-76
2022/10/18 08:41:01;;;;;;;3.90;1.80;;;;;20.40;102641.00;;;;5073683;28;20214;-75
2022/10/18 08:43:37;;;;;;;2.38;1.60;;;;;20.40;102640.00;;;;5084988;28;20202;-75
2022/10/18 08:46:04;;;;;;;3.20;1.48;;;;;20.60;102627.00;;;;5074562;28;20204;-76
2022/10/18 08:48:38;;;;;;;4.70;2.15;;;;;20.60;102617.00;;;;5075134;28;20599;-75
2022/10/18 08:51:17;;;;;;;4.60;2.28;;;;;20.70;102619.00;;;;5082879;28;20189;-76
2022/10/18 08:53:51;;;;;;;5.45;2.13;;;;;20.80;102622.00;;;;5084381;28;20202;-77
2022/10/18 08:56:22;;;;;;;3.75;1.67;;;;;20.90;102626.00;;;;5075423;28;20738;-76
2022/10/18 08:58:50;;;;;;;3.45;1.50;;;;;21.00;102624.00;;;;5091101;28;20251;-76
2022/10/18 09:01:28;;;;;;;4.10;1.50;;;;;21.00;102624.00;;;;5091692;28;20202;-76
2022/10/18 09:04:14;;;;;;;1.80;1.05;;;;;21.00;102625.00;;;;5076633;28;20210;-77
2022/10/18 09:06:52;;;;;;;8.20;1.25;;;;;21.20;102632.00;;;;5080142;28;20198;-77
2022/10/18 09:09:34;;;;;;;2.75;1.30;;;;;21.20;102640.00;;;;5087065;28;20213;-77
2022/10/18 09:12:13;;;;;;;5.30;1.05;;;;;21.40;102628.00;;;;5076720;28;20218;-77
2022/10/18 09:14:55;;;;;;;5.50;1.02;;;;;21.40;102627.00;;;;5081830;28;20198;-77
2022/10/18 09:17:31;;;;;;;5.55;1.10;;;;;21.50;102643.00;;;;5074680;28;21041;-76
2022/10/18 09:20:16;;;;;;;5.57;1.30;;;;;21.60;102644.00;;;;5074995;28;20198;-76
2022/10/18 09:22:55;;;;;;;6.28;1.45;;;;;21.70;102643.00;;;;5090181;28;20649;-76
2022/10/18 09:25:24;;;;;;;3.42;1.38;;;;;21.80;102649.00;;;;5089993;28;20915;-76
2022/10/18 09:27:55;;;;;;;3.05;1.15;;;;;22.00;102648.00;;;;5087855;28;20203;-76
2022/10/18 09:30:35;;;;;;;1.60;0.65;;;;;22.00;102652.00;;;;5070065;28;20654;-76
2022/10/18 09:33:18;;;;;;;7.65;1.13;;;;;22.10;102653.00;;;;5082954;28;20222;-76
2022/10/18 09:35:52;;;;;;;9.13;2.03;;;;;22.20;102659.00;;;;5072239;28;20668;-78
2022/10/18 09:38:24;;;;;;;2.88;0.77;;;;;22.30;102659.00;;;;5086681;28;20201;-77
2022/10/18 09:40:55;;;;;;;2.45;0.55;;;;;22.40;102655.00;;;;5076030;28;20202;-77
2022/10/18 09:43:25;;;;;;;5.30;0.98;;;;;22.50;102660.00;;;;5090730;28;20872;-77
2022/10/18 09:45:55;;;;;;;2.53;0.90;;;;;22.60;102663.00;;;;5090774;28;20198;-77
2022/10/18 09:48:26;;;;;;;2.88;0.52;;;;;22.70;102669.00;;;;5082667;28;20198;-77
2022/10/18 09:51:01;;;;;;;2.42;0.70;;;;;22.80;102679.00;;;;5071174;28;20203;-77
2022/10/18 09:53:36;;;;;;;1.02;0.47;;;;;22.90;102670.00;;;;5081105;28;20229;-77
2022/10/18 09:56:08;;;;;;;2.00;0.57;;;;;22.90;102672.00;;;;5074139;28;20580;-78
2022/10/18 09:58:43;;;;;;;2.65;0.80;;;;;23.00;102675.00;;;;5090799;28;20222;-75
2022/10/18 10:01:12;;;;;;;3.78;0.70;;;;;23.10;102679.00;;;;5089938;28;20293;-75
2022/10/18 10:03:41;;;;;;;1.60;0.60;;;;;23.20;102677.00;;;;5079093;28;20195;-76
2022/10/18 10:06:25;;;;;;;4.00;0.68;;;;;23.20;102669.00;;;;5070736;28;20203;-76
2022/10/18 10:09:00;;;;;;;3.22;0.85;;;;;23.40;102675.00;;;;5075866;28;20206;-76
2022/10/18 10:11:30;;;;;;;3.15;0.77;;;;;23.50;102683.00;;;;5088167;28;20194;-76
2022/10/18 10:14:15;;;;;;;6.63;0.98;;;;;23.50;102681.00;;;;5090017;28;20695;-76
2022/10/18 10:16:50;;;;;;;2.78;0.60;;;;;23.50;102675.00;;;;5075539;28;20206;-76
2022/10/18 10:19:29;;;;;;;0.80;0.40;;;;;23.60;102689.00;;;;5081907;28;20210;-76
2022/10/18 10:22:07;;;;;;;2.28;0.40;;;;;23.70;102690.00;;;;5082769;28;20198;-76
2022/10/18 10:24:43;;;;;;;1.35;0.57;;;;;23.80;102685.00;;;;5072503;28;20240;-77
2022/10/18 10:27:18;;;;;;;3.20;0.65;;;;;23.90;102696.00;;;;5077180;28;20858;-76
2022/10/18 10:29:55;;;;;;;1.83;0.50;;;;;23.90;102694.00;;;;5082526;28;20238;-76
2022/10/18 10:32:28;;;;;;;1.95;0.40;;;;;24.00;102694.00;;;;5072863;28;20241;-76
2022/10/18 10:34:56;;;;;;;3.85;1.08;;;;;24.10;102695.00;;;;5086125;28;20191;-77
2022/10/18 10:37:50;;;;;;;4.60;0.80;;;;;24.00;102692.00;;;;5077925;28;20205;-77
2022/10/18 10:40:21;;;;;;;2.60;0.85;;;;;24.20;102704.00;;;;5071102;28;20211;-77
2022/10/18 10:43:01;;;;;;;2.30;0.70;;;;;24.20;102693.00;;;;5086870;28;20290;-77
2022/10/18 10:45:30;;;;;;;1.10;0.32;;;;;24.30;102700.00;;;;5072483;28;20201;-77
2022/10/18 10:48:08;;;;;;;3.00;0.70;;;;;24.40;102701.00;;;;5083093;28;20583;-77
2022/10/18 10:50:51;;;;;;;3.90;1.02;;;;;24.40;102701.00;;;;5089812;28;20202;-76
2022/10/18 10:53:28;;;;;;;1.60;0.50;;;;;24.40;102703.00;;;;5069761;28;20272;-77
2022/10/18 10:55:57;;;;;;;1.63;0.50;;;;;24.60;102696.00;;;;5081988;28;20255;-77
2022/10/18 10:58:28;;;;;;;1.83;0.60;;;;;24.60;102706.00;;;;5073254;28;21042;-76
2022/10/18 11:00:57;;;;;;;4.20;0.85;;;;;24.60;102699.00;;;;5086805;28;20199;-76
2022/10/18 11:03:24;;;;;;;3.08;0.77;;;;;24.70;102708.00;;;;5076444;28;20198;-77
2022/10/18 11:05:54;;;;;;;3.72;1.17;;;;;24.70;102709.00;;;;5077905;28;20202;-77
2022/10/18 11:08:26;;;;;;;2.78;0.57;;;;;24.80;102713.00;;;;5083765;28;20297;-77
2022/10/18 11:11:07;;;;;;;3.05;0.93;;;;;24.70;102714.00;;;;5089679;28;20572;-77
2022/10/18 11:13:45;;;;;;;2.95;0.70;;;;;24.80;102709.00;;;;5081560;28;20226;-76
2022/10/18 11:16:17;;;;;;;2.42;1.05;;;;;24.90;102714.00;;;;5082522;28;20660;-77
2022/10/18 11:18:48;;;;;;;2.60;0.68;;;;;24.90;102711.00;;;;5072472;28;20191;-77
2022/10/18 11:21:18;;;;;;;7.75;0.95;;;;;24.90;102708.00;;;;5083200;28;20202;-77
2022/10/18 11:23:47;;;;;;;4.18;1.02;;;;;24.90;102703.00;;;;5069418;28;20223;-77
2022/10/18 11:26:39;;;;;;;3.20;0.77;;;;;24.90;102701.00;;;;5086288;28;20198;-77
2022/10/18 11:29:25;;;;;;;2.78;0.50;;;;;24.90;102710.00;;;;5071549;28;20314;-77
2022/10/18 11:32:04;;;;;;;3.10;0.70;;;;;24.90;102705.00;;;;5078644;28;20214;-77
2022/10/18 11:34:55;;;;;;;1.27;0.45;;;;;24.90;102711.00;;;;5073931;28;20194;-77
2022/10/18 11:37:40;;;;;;;1.73;0.20;;;;;24.90;102717.00;;;;5078147;28;20209;-77
2022/10/18 11:40:27;;;;;;;1.02;0.38;;;;;24.90;102703.00;;;;5071865;28;20198;-77
2022/10/18 11:43:04;;;;;;;1.17;0.30;;;;;25.00;102707.00;;;;5077461;28;20202;-77
2022/10/18 11:45:40;;;;;;;3.78;0.63;;;;;25.00;102698.00;;;;5072977;28;20199;-77
2022/10/18 11:48:21;;;;;;;1.02;0.50;;;;;25.00;102716.00;;;;5078027;28;20204;-77
2022/10/18 11:50:57;;;;;;;1.77;0.40;;;;;25.00;102712.00;;;;5088523;28;20194;-77
2022/10/18 11:53:34;;;;;;;3.22;0.32;;;;;24.90;102707.00;;;;5078139;28;20222;-76
2022/10/18 11:56:14;;;;;;;2.45;0.60;;;;;24.90;102705.00;;;;5082775;28;20232;-77
2022/10/18 11:59:01;;;;;;;1.65;0.35;;;;;24.90;102709.00;;;;5075143;28;20207;-77
2022/10/18 12:01:36;;;;;;;2.28;0.60;;;;;24.90;102697.00;;;;5068109;28;20203;-78
2022/10/18 12:04:09;;;;;;;1.77;0.30;;;;;24.90;102692.00;;;;5081639;28;20193;-74
2022/10/18 12:06:39;;;;;;;3.30;0.30;;;;;24.90;102693.00;;;;5088596;28;20671;-75
2022/10/18 12:09:17;;;;;;;2.97;0.95;;;;;24.80;102696.00;;;;5081733;28;20199;-76
2022/10/18 12:11:49;;;;;;;3.60;0.60;;;;;24.90;102702.00;;;;5079027;28;20236;-76
2022/10/18 12:14:24;;;;;;;1.20;0.30;;;;;24.80;102693.00;;;;5087886;28;20222;-76
2022/10/18 12:16:52;;;;;;;2.13;0.40;;;;;24.90;102692.00;;;;5079555;28;20237;-76
2022/10/18 12:19:23;;;;;;;0.60;0.25;;;;;24.90;102684.00;;;;5069708;28;20207;-77
2022/10/18 12:21:51;;;;;;;3.15;0.30;;;;;24.90;102687.00;;;;5074040;28;20665;-77
2022/10/18 12:24:22;;;;;;;3.92;0.65;;;;;24.80;102685.00;;;;5067422;28;20226;-76
2022/10/18 12:26:56;;;;;;;1.58;0.50;;;;;24.80;102683.00;;;;5085286;28;20206;-75